sensor_id;sensor_type;location;lat;lon;timestamp;temperature;humidity
21778;DHT22;11050;52.222;20.916;2023-07-24T00:02:25;20.90;90.60
21778;DHT22;11050;52.222;20.916;2023-07-24T00:04:51;20.80;90.60
21778;DHT22;11050;52.222;20.916;2023-07-24T00:07:17;20.80;90.80
21778;DHT22;11050;52.222;20.916;2023-07-24T00:09:42;20.80;91.00
21778;DHT22;11050;52.222;20.916;2023-07-24T00:12:08;20.80;91.20
21778;DHT22;11050;52.222;20.916;2023-07-24T00:14:34;20.80;91.50
21778;DHT22;11050;52.222;20.916;2023-07-24T00:17:00;20.80;91.90
21778;DHT22;11050;52.222;20.916;2023-07-24T00:19:26;20.70;92.00
21778;DHT22;11050;52.222;20.916;2023-07-24T00:21:51;20.70;92.10
21778;DHT22;11050;52.222;20.916;2023-07-24T00:24:17;20.70;92.00
21778;DHT22;11050;52.222;20.916;2023-07-24T00:26:43;20.60;92.00
21778;DHT22;11050;52.222;20.916;2023-07-24T00:29:08;20.60;91.80
21778;DHT22;11050;52.222;20.916;2023-07-24T00:31:34;20.70;91.90
21778;DHT22;11050;52.222;20.916;2023-07-24T00:34:00;20.60;91.90
21778;DHT22;11050;52.222;20.916;2023-07-24T00:36:26;20.70;91.80
21778;DHT22;11050;52.222;20.916;2023-07-24T00:38:52;20.70;91.70
21778;DHT22;11050;52.222;20.916;2023-07-24T00:41:18;20.70;91.50
21778;DHT22;11050;52.222;20.916;2023-07-24T00:43:43;20.70;91.40
21778;DHT22;11050;52.222;20.916;2023-07-24T00:46:10;20.70;91.40
21778;DHT22;11050;52.222;20.916;2023-07-24T00:48:38;20.70;91.10
21778;DHT22;11050;52.222;20.916;2023-07-24T00:51:05;20.70;91.20
21778;DHT22;11050;52.222;20.916;2023-07-24T00:53:31;20.70;91.10
21778;DHT22;11050;52.222;20.916;2023-07-24T00:55:57;20.70;91.10
21778;DHT22;11050;52.222;20.916;2023-07-24T00:58:23;20.70;91.00
21778;DHT22;11050;52.222;20.916;2023-07-24T01:00:50;20.70;90.80
21778;DHT22;11050;52.222;20.916;2023-07-24T01:03:16;20.70;90.70
21778;DHT22;11050;52.222;20.916;2023-07-24T01:05:41;20.70;90.60
21778;DHT22;11050;52.222;20.916;2023-07-24T01:08:07;20.70;90.40
21778;DHT22;11050;52.222;20.916;2023-07-24T01:10:33;20.70;90.30
21778;DHT22;11050;52.222;20.916;2023-07-24T01:15:37;20.80;90.00
21778;DHT22;11050;52.222;20.916;2023-07-24T01:18:12;20.80;89.50
21778;DHT22;11050;52.222;20.916;2023-07-24T01:20:50;20.80;88.70
21778;DHT22;11050;52.222;20.916;2023-07-24T01:26:25;20.90;87.70
21778;DHT22;11050;52.222;20.916;2023-07-24T01:28:51;20.90;87.40
21778;DHT22;11050;52.222;20.916;2023-07-24T01:31:17;20.90;87.10
21778;DHT22;11050;52.222;20.916;2023-07-24T01:33:44;20.90;86.60
21778;DHT22;11050;52.222;20.916;2023-07-24T01:36:11;20.90;87.00
21778;DHT22;11050;52.222;20.916;2023-07-24T01:38:38;21.00;85.80
21778;DHT22;11050;52.222;20.916;2023-07-24T01:41:04;21.00;85.10
21778;DHT22;11050;52.222;20.916;2023-07-24T01:43:30;21.00;84.70
21778;DHT22;11050;52.222;20.916;2023-07-24T01:45:57;21.00;84.20
21778;DHT22;11050;52.222;20.916;2023-07-24T01:48:23;21.00;83.50
21778;DHT22;11050;52.222;20.916;2023-07-24T01:50:49;21.00;83.20
21778;DHT22;11050;52.222;20.916;2023-07-24T01:53:15;21.00;82.60
21778;DHT22;11050;52.222;20.916;2023-07-24T01:55:41;21.00;82.60
21778;DHT22;11050;52.222;20.916;2023-07-24T01:58:07;21.00;82.40
21778;DHT22;11050;52.222;20.916;2023-07-24T02:00:33;21.00;82.30
21778;DHT22;11050;52.222;20.916;2023-07-24T02:02:58;21.00;82.20
21778;DHT22;11050;52.222;20.916;2023-07-24T02:05:25;21.00;81.80
21778;DHT22;11050;52.222;20.916;2023-07-24T02:07:51;21.00;81.50
21778;DHT22;11050;52.222;20.916;2023-07-24T02:10:17;21.00;81.30
21778;DHT22;11050;52.222;20.916;2023-07-24T02:12:43;21.00;81.10
21778;DHT22;11050;52.222;20.916;2023-07-24T02:15:09;21.00;80.90
21778;DHT22;11050;52.222;20.916;2023-07-24T02:17:35;21.00;80.30
21778;DHT22;11050;52.222;20.916;2023-07-24T02:20:01;21.00;79.90
21778;DHT22;11050;52.222;20.916;2023-07-24T02:22:27;21.00;79.90
21778;DHT22;11050;52.222;20.916;2023-07-24T02:24:52;20.90;80.60
21778;DHT22;11050;52.222;20.916;2023-07-24T02:27:30;20.90;79.90
21778;DHT22;11050;52.222;20.916;2023-07-24T02:29:59;20.90;80.00
21778;DHT22;11050;52.222;20.916;2023-07-24T02:32:26;20.80;80.00
21778;DHT22;11050;52.222;20.916;2023-07-24T02:34:52;20.80;80.10
21778;DHT22;11050;52.222;20.916;2023-07-24T02:37:19;20.80;80.30
21778;DHT22;11050;52.222;20.916;2023-07-24T02:39:45;20.70;80.60
21778;DHT22;11050;52.222;20.916;2023-07-24T02:42:11;20.70;80.70
21778;DHT22;11050;52.222;20.916;2023-07-24T02:44:37;20.70;80.70
21778;DHT22;11050;52.222;20.916;2023-07-24T02:47:03;20.70;81.00
21778;DHT22;11050;52.222;20.916;2023-07-24T02:49:29;20.60;81.10
21778;DHT22;11050;52.222;20.916;2023-07-24T02:51:55;20.60;81.10
21778;DHT22;11050;52.222;20.916;2023-07-24T02:54:21;20.60;81.20
21778;DHT22;11050;52.222;20.916;2023-07-24T02:56:47;20.60;81.40
21778;DHT22;11050;52.222;20.916;2023-07-24T02:59:12;20.60;81.30
21778;DHT22;11050;52.222;20.916;2023-07-24T03:01:38;20.60;81.50
21778;DHT22;11050;52.222;20.916;2023-07-24T03:04:04;20.60;81.60
21778;DHT22;11050;52.222;20.916;2023-07-24T03:06:31;20.50;81.70
21778;DHT22;11050;52.222;20.916;2023-07-24T03:08:57;20.50;81.70
21778;DHT22;11050;52.222;20.916;2023-07-24T03:11:23;20.50;81.80
21778;DHT22;11050;52.222;20.916;2023-07-24T03:13:48;20.50;81.90
21778;DHT22;11050;52.222;20.916;2023-07-24T03:16:14;20.50;81.90
21778;DHT22;11050;52.222;20.916;2023-07-24T03:18:42;20.50;82.00
21778;DHT22;11050;52.222;20.916;2023-07-24T03:21:08;20.50;82.00
21778;DHT22;11050;52.222;20.916;2023-07-24T03:23:34;20.50;82.20
21778;DHT22;11050;52.222;20.916;2023-07-24T03:26:00;20.40;82.20
21778;DHT22;11050;52.222;20.916;2023-07-24T03:28:26;20.40;82.40
21778;DHT22;11050;52.222;20.916;2023-07-24T03:30:52;20.40;82.50
21778;DHT22;11050;52.222;20.916;2023-07-24T03:33:18;20.40;82.70
21778;DHT22;11050;52.222;20.916;2023-07-24T03:35:44;20.30;82.80
21778;DHT22;11050;52.222;20.916;2023-07-24T03:38:09;20.30;83.00
21778;DHT22;11050;52.222;20.916;2023-07-24T03:40:35;20.30;83.20
21778;DHT22;11050;52.222;20.916;2023-07-24T03:43:01;20.30;83.20
21778;DHT22;11050;52.222;20.916;2023-07-24T03:45:27;20.30;83.30
21778;DHT22;11050;52.222;20.916;2023-07-24T03:47:52;20.30;83.40
21778;DHT22;11050;52.222;20.916;2023-07-24T03:50:18;20.30;83.60
21778;DHT22;11050;52.222;20.916;2023-07-24T03:52:44;20.30;83.70
21778;DHT22;11050;52.222;20.916;2023-07-24T03:55:09;20.30;84.10
21778;DHT22;11050;52.222;20.916;2023-07-24T03:57:36;20.30;84.10
21778;DHT22;11050;52.222;20.916;2023-07-24T04:00:02;20.20;84.20
21778;DHT22;11050;52.222;20.916;2023-07-24T04:02:28;20.20;84.40
21778;DHT22;11050;52.222;20.916;2023-07-24T04:04:54;20.30;84.40
21778;DHT22;11050;52.222;20.916;2023-07-24T04:07:20;20.30;84.50
21778;DHT22;11050;52.222;20.916;2023-07-24T04:09:45;20.30;84.60
21778;DHT22;11050;52.222;20.916;2023-07-24T04:12:12;20.30;84.50
21778;DHT22;11050;52.222;20.916;2023-07-24T04:14:38;20.30;84.60
21778;DHT22;11050;52.222;20.916;2023-07-24T04:17:04;20.30;84.70
21778;DHT22;11050;52.222;20.916;2023-07-24T04:19:30;20.30;84.80
21778;DHT22;11050;52.222;20.916;2023-07-24T04:21:55;20.30;84.90
21778;DHT22;11050;52.222;20.916;2023-07-24T04:24:21;20.40;85.10
21778;DHT22;11050;52.222;20.916;2023-07-24T04:26:47;20.40;85.10
21778;DHT22;11050;52.222;20.916;2023-07-24T04:29:12;20.50;84.80
21778;DHT22;11050;52.222;20.916;2023-07-24T04:31:38;20.50;84.30
21778;DHT22;11050;52.222;20.916;2023-07-24T04:34:04;20.60;84.60
21778;DHT22;11050;52.222;20.916;2023-07-24T04:36:30;20.60;84.00
21778;DHT22;11050;52.222;20.916;2023-07-24T04:38:56;20.70;84.00
21778;DHT22;11050;52.222;20.916;2023-07-24T04:41:22;20.70;83.70
21778;DHT22;11050;52.222;20.916;2023-07-24T04:43:47;20.70;83.90
21778;DHT22;11050;52.222;20.916;2023-07-24T04:46:13;20.70;83.70
21778;DHT22;11050;52.222;20.916;2023-07-24T04:48:39;20.80;83.50
21778;DHT22;11050;52.222;20.916;2023-07-24T04:51:04;20.80;83.60
21778;DHT22;11050;52.222;20.916;2023-07-24T04:53:30;20.90;83.40
21778;DHT22;11050;52.222;20.916;2023-07-24T04:55:56;20.90;83.00
21778;DHT22;11050;52.222;20.916;2023-07-24T04:58:22;21.00;82.80
21778;DHT22;11050;52.222;20.916;2023-07-24T05:00:47;21.10;82.70
21778;DHT22;11050;52.222;20.916;2023-07-24T05:03:13;21.20;82.00
21778;DHT22;11050;52.222;20.916;2023-07-24T05:05:39;21.20;81.50
21778;DHT22;11050;52.222;20.916;2023-07-24T05:08:04;21.30;80.60
21778;DHT22;11050;52.222;20.916;2023-07-24T05:10:35;21.40;81.00
21778;DHT22;11050;52.222;20.916;2023-07-24T05:13:01;21.40;81.00
21778;DHT22;11050;52.222;20.916;2023-07-24T05:15:27;21.50;80.20
21778;DHT22;11050;52.222;20.916;2023-07-24T05:17:53;21.50;80.50
21778;DHT22;11050;52.222;20.916;2023-07-24T05:20:18;21.50;80.20
21778;DHT22;11050;52.222;20.916;2023-07-24T05:22:44;21.50;80.00
21778;DHT22;11050;52.222;20.916;2023-07-24T05:25:10;21.60;79.80
21778;DHT22;11050;52.222;20.916;2023-07-24T05:27:36;21.60;79.60
21778;DHT22;11050;52.222;20.916;2023-07-24T05:30:03;21.60;79.90
21778;DHT22;11050;52.222;20.916;2023-07-24T05:32:30;21.60;79.80
21778;DHT22;11050;52.222;20.916;2023-07-24T05:34:56;21.60;80.20
21778;DHT22;11050;52.222;20.916;2023-07-24T05:37:21;21.60;80.70
21778;DHT22;11050;52.222;20.916;2023-07-24T05:39:47;21.60;79.90
21778;DHT22;11050;52.222;20.916;2023-07-24T05:42:13;21.60;79.20
21778;DHT22;11050;52.222;20.916;2023-07-24T05:44:39;21.60;79.10
21778;DHT22;11050;52.222;20.916;2023-07-24T05:47:04;21.60;79.00
21778;DHT22;11050;52.222;20.916;2023-07-24T05:49:30;21.60;79.20
21778;DHT22;11050;52.222;20.916;2023-07-24T05:51:56;21.60;79.60
21778;DHT22;11050;52.222;20.916;2023-07-24T05:54:22;21.60;79.70
21778;DHT22;11050;52.222;20.916;2023-07-24T05:56:48;21.60;80.40
21778;DHT22;11050;52.222;20.916;2023-07-24T05:59:14;21.60;79.70
21778;DHT22;11050;52.222;20.916;2023-07-24T06:01:40;21.60;80.00
21778;DHT22;11050;52.222;20.916;2023-07-24T06:04:06;21.60;80.00
21778;DHT22;11050;52.222;20.916;2023-07-24T06:06:32;21.70;80.00
21778;DHT22;11050;52.222;20.916;2023-07-24T06:08:59;21.70;80.20
21778;DHT22;11050;52.222;20.916;2023-07-24T06:11:25;21.80;80.10
21778;DHT22;11050;52.222;20.916;2023-07-24T06:13:52;21.70;79.70
21778;DHT22;11050;52.222;20.916;2023-07-24T06:16:18;21.70;80.00
21778;DHT22;11050;52.222;20.916;2023-07-24T06:18:44;21.70;80.30
21778;DHT22;11050;52.222;20.916;2023-07-24T06:21:10;21.70;80.00
21778;DHT22;11050;52.222;20.916;2023-07-24T06:23:36;21.70;80.60
21778;DHT22;11050;52.222;20.916;2023-07-24T06:26:02;21.70;80.10
21778;DHT22;11050;52.222;20.916;2023-07-24T06:28:27;21.80;80.00
21778;DHT22;11050;52.222;20.916;2023-07-24T06:30:54;21.90;80.00
21778;DHT22;11050;52.222;20.916;2023-07-24T06:33:20;21.90;80.00
21778;DHT22;11050;52.222;20.916;2023-07-24T06:35:50;22.00;80.20
21778;DHT22;11050;52.222;20.916;2023-07-24T06:38:16;22.10;80.00
21778;DHT22;11050;52.222;20.916;2023-07-24T06:40:42;22.20;79.70
21778;DHT22;11050;52.222;20.916;2023-07-24T06:43:08;22.30;79.50
21778;DHT22;11050;52.222;20.916;2023-07-24T06:45:34;22.30;79.50
21778;DHT22;11050;52.222;20.916;2023-07-24T06:47:59;22.50;79.10
21778;DHT22;11050;52.222;20.916;2023-07-24T06:50:25;22.50;78.80
21778;DHT22;11050;52.222;20.916;2023-07-24T06:52:51;22.60;78.60
21778;DHT22;11050;52.222;20.916;2023-07-24T06:55:19;22.60;78.40
21778;DHT22;11050;52.222;20.916;2023-07-24T06:57:45;22.60;77.20
21778;DHT22;11050;52.222;20.916;2023-07-24T07:00:11;22.60;78.00
21778;DHT22;11050;52.222;20.916;2023-07-24T07:02:38;22.60;77.20
21778;DHT22;11050;52.222;20.916;2023-07-24T07:05:05;22.60;78.00
21778;DHT22;11050;52.222;20.916;2023-07-24T07:07:31;22.60;77.40
21778;DHT22;11050;52.222;20.916;2023-07-24T07:09:57;22.60;77.50
21778;DHT22;11050;52.222;20.916;2023-07-24T07:12:23;22.70;77.50
21778;DHT22;11050;52.222;20.916;2023-07-24T07:14:49;22.80;78.10
21778;DHT22;11050;52.222;20.916;2023-07-24T07:17:14;22.90;77.60
21778;DHT22;11050;52.222;20.916;2023-07-24T07:19:40;23.00;76.40
21778;DHT22;11050;52.222;20.916;2023-07-24T07:22:06;23.20;76.70
21778;DHT22;11050;52.222;20.916;2023-07-24T07:24:32;23.30;75.20
21778;DHT22;11050;52.222;20.916;2023-07-24T07:26:57;23.50;74.50
21778;DHT22;11050;52.222;20.916;2023-07-24T07:29:23;23.60;73.70
21778;DHT22;11050;52.222;20.916;2023-07-24T07:31:49;23.60;74.00
21778;DHT22;11050;52.222;20.916;2023-07-24T07:34:15;23.70;72.40
21778;DHT22;11050;52.222;20.916;2023-07-24T07:36:41;23.90;72.30
21778;DHT22;11050;52.222;20.916;2023-07-24T07:39:06;24.00;72.10
21778;DHT22;11050;52.222;20.916;2023-07-24T07:41:32;24.10;72.30
21778;DHT22;11050;52.222;20.916;2023-07-24T07:43:58;24.20;70.50
21778;DHT22;11050;52.222;20.916;2023-07-24T07:46:24;24.20;69.70
21778;DHT22;11050;52.222;20.916;2023-07-24T07:48:49;24.30;70.30
21778;DHT22;11050;52.222;20.916;2023-07-24T07:51:15;24.40;69.10
21778;DHT22;11050;52.222;20.916;2023-07-24T07:53:41;24.40;69.10
21778;DHT22;11050;52.222;20.916;2023-07-24T07:56:07;24.40;68.50
21778;DHT22;11050;52.222;20.916;2023-07-24T07:58:33;24.50;68.60
21778;DHT22;11050;52.222;20.916;2023-07-24T08:01:04;24.70;69.00
21778;DHT22;11050;52.222;20.916;2023-07-24T08:03:30;24.80;67.50
21778;DHT22;11050;52.222;20.916;2023-07-24T08:05:59;24.80;67.10
21778;DHT22;11050;52.222;20.916;2023-07-24T08:08:26;25.00;67.00
21778;DHT22;11050;52.222;20.916;2023-07-24T08:10:51;25.00;67.10
21778;DHT22;11050;52.222;20.916;2023-07-24T08:13:17;25.00;67.50
21778;DHT22;11050;52.222;20.916;2023-07-24T08:15:43;25.10;66.80
21778;DHT22;11050;52.222;20.916;2023-07-24T08:18:10;25.20;66.40
21778;DHT22;11050;52.222;20.916;2023-07-24T08:20:36;25.20;67.00
21778;DHT22;11050;52.222;20.916;2023-07-24T08:23:03;25.30;67.00
21778;DHT22;11050;52.222;20.916;2023-07-24T08:25:29;25.40;67.10
21778;DHT22;11050;52.222;20.916;2023-07-24T08:27:54;25.50;66.70
21778;DHT22;11050;52.222;20.916;2023-07-24T08:30:20;25.60;66.40
21778;DHT22;11050;52.222;20.916;2023-07-24T08:32:46;25.70;65.00
21778;DHT22;11050;52.222;20.916;2023-07-24T08:35:12;25.70;64.50
21778;DHT22;11050;52.222;20.916;2023-07-24T08:37:38;25.80;64.20
21778;DHT22;11050;52.222;20.916;2023-07-24T08:40:09;25.90;65.00
21778;DHT22;11050;52.222;20.916;2023-07-24T08:42:38;26.00;65.60
21778;DHT22;11050;52.222;20.916;2023-07-24T08:45:11;26.10;64.30
21778;DHT22;11050;52.222;20.916;2023-07-24T08:47:42;26.20;63.30
21778;DHT22;11050;52.222;20.916;2023-07-24T08:50:09;26.30;63.60
21778;DHT22;11050;52.222;20.916;2023-07-24T08:52:38;26.40;62.90
21778;DHT22;11050;52.222;20.916;2023-07-24T08:55:05;26.60;62.40
21778;DHT22;11050;52.222;20.916;2023-07-24T08:57:32;26.60;61.60
21778;DHT22;11050;52.222;20.916;2023-07-24T08:59:57;26.70;61.00
21778;DHT22;11050;52.222;20.916;2023-07-24T09:02:24;26.70;61.80
21778;DHT22;11050;52.222;20.916;2023-07-24T09:04:49;26.70;61.60
21778;DHT22;11050;52.222;20.916;2023-07-24T09:07:15;26.80;60.70
21778;DHT22;11050;52.222;20.916;2023-07-24T09:09:41;26.80;61.40
21778;DHT22;11050;52.222;20.916;2023-07-24T09:12:08;26.90;61.00
21778;DHT22;11050;52.222;20.916;2023-07-24T09:14:34;26.90;60.50
21778;DHT22;11050;52.222;20.916;2023-07-24T09:19:29;26.90;60.30
21778;DHT22;11050;52.222;20.916;2023-07-24T09:21:55;27.00;59.80
21778;DHT22;11050;52.222;20.916;2023-07-24T09:24:21;27.00;60.20
21778;DHT22;11050;52.222;20.916;2023-07-24T09:26:48;27.20;60.90
21778;DHT22;11050;52.222;20.916;2023-07-24T09:29:17;27.30;60.80
21778;DHT22;11050;52.222;20.916;2023-07-24T09:31:43;27.40;59.60
21778;DHT22;11050;52.222;20.916;2023-07-24T09:34:17;27.50;59.20
21778;DHT22;11050;52.222;20.916;2023-07-24T09:36:44;27.60;58.80
21778;DHT22;11050;52.222;20.916;2023-07-24T09:39:10;27.60;58.00
21778;DHT22;11050;52.222;20.916;2023-07-24T09:41:40;27.60;58.30
21778;DHT22;11050;52.222;20.916;2023-07-24T09:44:06;27.60;57.80
21778;DHT22;11050;52.222;20.916;2023-07-24T09:46:33;27.60;58.10
21778;DHT22;11050;52.222;20.916;2023-07-24T09:48:59;27.70;57.70
21778;DHT22;11050;52.222;20.916;2023-07-24T09:51:25;27.80;57.00
21778;DHT22;11050;52.222;20.916;2023-07-24T09:54:19;27.90;56.80
21778;DHT22;11050;52.222;20.916;2023-07-24T09:56:51;28.00;56.90
21778;DHT22;11050;52.222;20.916;2023-07-24T09:59:18;28.10;55.70
21778;DHT22;11050;52.222;20.916;2023-07-24T10:01:47;28.10;55.70
21778;DHT22;11050;52.222;20.916;2023-07-24T10:04:15;28.20;57.90
21778;DHT22;11050;52.222;20.916;2023-07-24T10:06:43;28.30;57.10
21778;DHT22;11050;52.222;20.916;2023-07-24T10:09:10;28.30;56.30
21778;DHT22;11050;52.222;20.916;2023-07-24T10:11:36;28.40;56.30
21778;DHT22;11050;52.222;20.916;2023-07-24T10:14:02;28.40;55.90
21778;DHT22;11050;52.222;20.916;2023-07-24T10:16:29;28.50;54.90
21778;DHT22;11050;52.222;20.916;2023-07-24T10:18:54;28.60;55.00
21778;DHT22;11050;52.222;20.916;2023-07-24T10:21:27;28.60;54.40
21778;DHT22;11050;52.222;20.916;2023-07-24T10:23:53;28.60;54.00
21778;DHT22;11050;52.222;20.916;2023-07-24T10:26:25;28.70;54.30
21778;DHT22;11050;52.222;20.916;2023-07-24T10:28:52;28.80;54.30
21778;DHT22;11050;52.222;20.916;2023-07-24T10:31:23;28.90;54.00
21778;DHT22;11050;52.222;20.916;2023-07-24T10:33:52;29.00;54.80
21778;DHT22;11050;52.222;20.916;2023-07-24T10:36:19;29.00;54.40
21778;DHT22;11050;52.222;20.916;2023-07-24T10:38:53;29.10;53.40
21778;DHT22;11050;52.222;20.916;2023-07-24T10:41:20;29.10;53.30
21778;DHT22;11050;52.222;20.916;2023-07-24T10:43:50;29.10;53.30
21778;DHT22;11050;52.222;20.916;2023-07-24T10:46:19;29.20;53.10
21778;DHT22;11050;52.222;20.916;2023-07-24T10:48:50;29.20;52.80
21778;DHT22;11050;52.222;20.916;2023-07-24T10:51:16;29.20;53.90
21778;DHT22;11050;52.222;20.916;2023-07-24T10:53:45;29.20;52.90
21778;DHT22;11050;52.222;20.916;2023-07-24T10:56:12;29.10;53.10
21778;DHT22;11050;52.222;20.916;2023-07-24T10:58:39;29.10;53.70
21778;DHT22;11050;52.222;20.916;2023-07-24T11:01:06;29.10;52.60
21778;DHT22;11050;52.222;20.916;2023-07-24T11:03:35;29.40;53.40
21778;DHT22;11050;52.222;20.916;2023-07-24T11:06:02;29.80;52.20
21778;DHT22;11050;52.222;20.916;2023-07-24T11:08:28;30.30;52.70
21778;DHT22;11050;52.222;20.916;2023-07-24T11:10:56;30.70;51.40
21778;DHT22;11050;52.222;20.916;2023-07-24T11:13:24;31.20;52.40
21778;DHT22;11050;52.222;20.916;2023-07-24T11:15:53;31.70;49.50
21778;DHT22;11050;52.222;20.916;2023-07-24T11:18:20;31.90;46.30
21778;DHT22;11050;52.222;20.916;2023-07-24T11:20:49;32.10;45.30
21778;DHT22;11050;52.222;20.916;2023-07-24T11:23:17;32.20;43.70
21778;DHT22;11050;52.222;20.916;2023-07-24T11:25:43;32.30;43.70
21778;DHT22;11050;52.222;20.916;2023-07-24T11:28:11;32.40;43.30
21778;DHT22;11050;52.222;20.916;2023-07-24T11:30:38;32.40;43.00
21778;DHT22;11050;52.222;20.916;2023-07-24T11:33:06;32.30;42.60
21778;DHT22;11050;52.222;20.916;2023-07-24T11:35:34;32.20;43.20
21778;DHT22;11050;52.222;20.916;2023-07-24T11:38:04;32.30;44.40
21778;DHT22;11050;52.222;20.916;2023-07-24T11:40:38;32.30;43.50
21778;DHT22;11050;52.222;20.916;2023-07-24T11:43:15;32.40;43.30
21778;DHT22;11050;52.222;20.916;2023-07-24T11:45:43;32.50;42.70
21778;DHT22;11050;52.222;20.916;2023-07-24T11:48:11;32.70;43.00
21778;DHT22;11050;52.222;20.916;2023-07-24T11:50:48;32.90;42.70
21778;DHT22;11050;52.222;20.916;2023-07-24T11:53:29;32.90;41.80
21778;DHT22;11050;52.222;20.916;2023-07-24T11:55:58;32.90;41.60
21778;DHT22;11050;52.222;20.916;2023-07-24T11:58:29;32.80;41.70
21778;DHT22;11050;52.222;20.916;2023-07-24T12:00:56;32.50;42.00
21778;DHT22;11050;52.222;20.916;2023-07-24T12:03:24;32.20;42.40
21778;DHT22;11050;52.222;20.916;2023-07-24T12:05:51;31.80;42.80
21778;DHT22;11050;52.222;20.916;2023-07-24T12:08:29;31.60;42.80
21778;DHT22;11050;52.222;20.916;2023-07-24T12:10:56;31.30;43.70
21778;DHT22;11050;52.222;20.916;2023-07-24T12:13:22;31.10;44.60
21778;DHT22;11050;52.222;20.916;2023-07-24T12:15:48;31.30;44.80
21778;DHT22;11050;52.222;20.916;2023-07-24T12:18:15;31.50;44.10
21778;DHT22;11050;52.222;20.916;2023-07-24T12:20:41;31.70;43.50
21778;DHT22;11050;52.222;20.916;2023-07-24T12:23:06;31.80;43.50
21778;DHT22;11050;52.222;20.916;2023-07-24T12:25:32;32.00;44.10
21778;DHT22;11050;52.222;20.916;2023-07-24T12:27:58;32.10;42.60
21778;DHT22;11050;52.222;20.916;2023-07-24T12:30:24;32.30;43.20
21778;DHT22;11050;52.222;20.916;2023-07-24T12:32:50;32.60;41.70
21778;DHT22;11050;52.222;20.916;2023-07-24T12:35:16;33.00;41.40
21778;DHT22;11050;52.222;20.916;2023-07-24T12:37:46;33.30;41.50
21778;DHT22;11050;52.222;20.916;2023-07-24T12:40:12;33.60;40.00
21778;DHT22;11050;52.222;20.916;2023-07-24T12:42:38;33.80;40.30
21778;DHT22;11050;52.222;20.916;2023-07-24T12:45:04;34.00;39.20
21778;DHT22;11050;52.222;20.916;2023-07-24T12:47:31;34.10;38.30
21778;DHT22;11050;52.222;20.916;2023-07-24T12:49:57;34.20;39.10
21778;DHT22;11050;52.222;20.916;2023-07-24T12:52:25;34.30;37.90
21778;DHT22;11050;52.222;20.916;2023-07-24T12:54:51;34.20;38.30
21778;DHT22;11050;52.222;20.916;2023-07-24T12:57:17;34.10;38.70
21778;DHT22;11050;52.222;20.916;2023-07-24T12:59:43;34.10;39.30
21778;DHT22;11050;52.222;20.916;2023-07-24T13:02:08;33.90;38.80
21778;DHT22;11050;52.222;20.916;2023-07-24T13:04:34;33.70;38.60
21778;DHT22;11050;52.222;20.916;2023-07-24T13:07:00;33.50;39.10
21778;DHT22;11050;52.222;20.916;2023-07-24T13:09:27;33.20;39.30
21778;DHT22;11050;52.222;20.916;2023-07-24T13:11:53;33.00;40.30
21778;DHT22;11050;52.222;20.916;2023-07-24T13:14:20;32.80;40.50
21778;DHT22;11050;52.222;20.916;2023-07-24T13:16:46;32.50;40.90
21778;DHT22;11050;52.222;20.916;2023-07-24T13:19:12;32.40;40.90
21778;DHT22;11050;52.222;20.916;2023-07-24T13:21:38;32.60;40.50
21778;DHT22;11050;52.222;20.916;2023-07-24T13:24:06;32.50;40.70
21778;DHT22;11050;52.222;20.916;2023-07-24T13:26:32;32.50;40.90
21778;DHT22;11050;52.222;20.916;2023-07-24T13:28:58;32.30;41.20
21778;DHT22;11050;52.222;20.916;2023-07-24T13:31:24;32.20;41.10
21778;DHT22;11050;52.222;20.916;2023-07-24T13:33:50;32.10;41.60
21778;DHT22;11050;52.222;20.916;2023-07-24T13:36:16;32.00;41.90
21778;DHT22;11050;52.222;20.916;2023-07-24T13:38:41;32.10;42.50
21778;DHT22;11050;52.222;20.916;2023-07-24T13:41:07;32.20;41.40
21778;DHT22;11050;52.222;20.916;2023-07-24T13:43:34;32.40;41.70
21778;DHT22;11050;52.222;20.916;2023-07-24T13:46:00;32.70;41.80
21778;DHT22;11050;52.222;20.916;2023-07-24T13:48:28;33.10;40.50
21778;DHT22;11050;52.222;20.916;2023-07-24T13:50:55;33.60;38.60
21778;DHT22;11050;52.222;20.916;2023-07-24T13:53:21;34.10;37.00
21778;DHT22;11050;52.222;20.916;2023-07-24T13:55:47;34.60;36.20
21778;DHT22;11050;52.222;20.916;2023-07-24T13:58:13;35.00;34.90
21778;DHT22;11050;52.222;20.916;2023-07-24T14:00:38;35.20;34.60
21778;DHT22;11050;52.222;20.916;2023-07-24T14:03:04;35.70;33.30
21778;DHT22;11050;52.222;20.916;2023-07-24T14:05:30;36.00;33.20
21778;DHT22;11050;52.222;20.916;2023-07-24T14:07:56;36.40;32.90
21778;DHT22;11050;52.222;20.916;2023-07-24T14:10:21;36.80;32.40
21778;DHT22;11050;52.222;20.916;2023-07-24T14:12:47;36.60;32.10
21778;DHT22;11050;52.222;20.916;2023-07-24T14:15:13;36.60;31.90
21778;DHT22;11050;52.222;20.916;2023-07-24T14:17:38;36.60;32.20
21778;DHT22;11050;52.222;20.916;2023-07-24T14:20:06;36.60;32.30
21778;DHT22;11050;52.222;20.916;2023-07-24T14:22:32;36.50;31.90
21778;DHT22;11050;52.222;20.916;2023-07-24T14:24:58;36.30;32.10
21778;DHT22;11050;52.222;20.916;2023-07-24T14:27:23;36.10;32.20
21778;DHT22;11050;52.222;20.916;2023-07-24T14:29:49;35.90;32.30
21778;DHT22;11050;52.222;20.916;2023-07-24T14:32:15;35.80;32.20
21778;DHT22;11050;52.222;20.916;2023-07-24T14:34:41;35.60;32.50
21778;DHT22;11050;52.222;20.916;2023-07-24T14:37:07;35.50;33.10
21778;DHT22;11050;52.222;20.916;2023-07-24T14:39:33;35.50;33.20
21778;DHT22;11050;52.222;20.916;2023-07-24T14:41:59;35.40;33.00
21778;DHT22;11050;52.222;20.916;2023-07-24T14:44:25;35.40;33.30
21778;DHT22;11050;52.222;20.916;2023-07-24T14:46:51;35.40;33.70
21778;DHT22;11050;52.222;20.916;2023-07-24T14:49:17;35.40;33.50
21778;DHT22;11050;52.222;20.916;2023-07-24T14:51:42;35.30;33.60
21778;DHT22;11050;52.222;20.916;2023-07-24T14:54:08;35.10;33.70
21778;DHT22;11050;52.222;20.916;2023-07-24T14:56:34;34.90;34.10
21778;DHT22;11050;52.222;20.916;2023-07-24T14:59:00;34.70;34.60
21778;DHT22;11050;52.222;20.916;2023-07-24T15:01:26;34.50;34.40
21778;DHT22;11050;52.222;20.916;2023-07-24T15:03:54;34.20;34.80
21778;DHT22;11050;52.222;20.916;2023-07-24T15:06:22;34.00;35.80
21778;DHT22;11050;52.222;20.916;2023-07-24T15:08:48;33.80;36.40
21778;DHT22;11050;52.222;20.916;2023-07-24T15:11:19;33.60;36.30
21778;DHT22;11050;52.222;20.916;2023-07-24T15:13:45;33.60;36.60
21778;DHT22;11050;52.222;20.916;2023-07-24T15:16:11;33.50;36.70
21778;DHT22;11050;52.222;20.916;2023-07-24T15:18:37;33.40;37.30
21778;DHT22;11050;52.222;20.916;2023-07-24T15:21:03;33.40;37.40